sensor_id;sensor_type;location;lat;lon;timestamp;temperature;humidity
65044;DHT22;51617;48.158;16.464;2023-05-15T00:01:15;14.30;99.90
65044;DHT22;51617;48.158;16.464;2023-05-15T00:03:41;14.30;99.90
65044;DHT22;51617;48.158;16.464;2023-05-15T00:06:06;14.30;99.90
65044;DHT22;51617;48.158;16.464;2023-05-15T00:08:32;14.30;99.90
65044;DHT22;51617;48.158;16.464;2023-05-15T00:10:58;14.20;99.90
65044;DHT22;51617;48.158;16.464;2023-05-15T00:13:23;14.20;99.90
65044;DHT22;51617;48.158;16.464;2023-05-15T00:15:49;14.20;99.90
65044;DHT22;51617;48.158;16.464;2023-05-15T00:18:15;14.20;99.90
65044;DHT22;51617;48.158;16.464;2023-05-15T00:20:40;14.10;99.90
65044;DHT22;51617;48.158;16.464;2023-05-15T00:23:06;14.20;99.90
65044;DHT22;51617;48.158;16.464;2023-05-15T00:25:31;14.20;99.90
65044;DHT22;51617;48.158;16.464;2023-05-15T00:27:57;14.20;99.90
65044;DHT22;51617;48.158;16.464;2023-05-15T00:30:23;14.30;99.90
65044;DHT22;51617;48.158;16.464;2023-05-15T00:32:48;14.30;99.90
65044;DHT22;51617;48.158;16.464;2023-05-15T00:35:14;14.30;99.90
65044;DHT22;51617;48.158;16.464;2023-05-15T00:37:40;14.30;99.90
65044;DHT22;51617;48.158;16.464;2023-05-15T00:40:08;14.30;99.90
65044;DHT22;51617;48.158;16.464;2023-05-15T00:42:34;14.30;99.90
65044;DHT22;51617;48.158;16.464;2023-05-15T00:45:01;14.20;99.90
65044;DHT22;51617;48.158;16.464;2023-05-15T00:47:28;14.20;99.90
65044;DHT22;51617;48.158;16.464;2023-05-15T00:49:55;14.10;99.90
65044;DHT22;51617;48.158;16.464;2023-05-15T00:52:21;14.20;99.90
65044;DHT22;51617;48.158;16.464;2023-05-15T00:54:48;14.20;99.90
65044;DHT22;51617;48.158;16.464;2023-05-15T00:57:15;14.30;99.90
65044;DHT22;51617;48.158;16.464;2023-05-15T00:59:41;14.30;99.90
65044;DHT22;51617;48.158;16.464;2023-05-15T01:02:07;14.20;99.90
65044;DHT22;51617;48.158;16.464;2023-05-15T01:04:33;14.20;99.90
65044;DHT22;51617;48.158;16.464;2023-05-15T01:06:59;14.20;99.90
65044;DHT22;51617;48.158;16.464;2023-05-15T01:09:26;14.10;99.90
65044;DHT22;51617;48.158;16.464;2023-05-15T01:11:56;14.10;99.90
65044;DHT22;51617;48.158;16.464;2023-05-15T01:14:23;14.10;99.90
65044;DHT22;51617;48.158;16.464;2023-05-15T01:16:49;14.10;99.90
65044;DHT22;51617;48.158;16.464;2023-05-15T01:19:14;14.10;99.90
65044;DHT22;51617;48.158;16.464;2023-05-15T01:32:23;14.20;99.90
65044;DHT22;51617;48.158;16.464;2023-05-15T01:35:20;14.20;99.90
65044;DHT22;51617;48.158;16.464;2023-05-15T01:37:50;14.20;99.90
65044;DHT22;51617;48.158;16.464;2023-05-15T01:40:18;14.20;99.90
65044;DHT22;51617;48.158;16.464;2023-05-15T01:42:54;14.10;99.90
65044;DHT22;51617;48.158;16.464;2023-05-15T01:45:22;14.20;99.90
65044;DHT22;51617;48.158;16.464;2023-05-15T01:47:52;14.10;99.90
65044;DHT22;51617;48.158;16.464;2023-05-15T01:50:19;14.10;99.90
65044;DHT22;51617;48.158;16.464;2023-05-15T01:52:50;14.10;99.90
65044;DHT22;51617;48.158;16.464;2023-05-15T01:55:18;14.10;99.90
65044;DHT22;51617;48.158;16.464;2023-05-15T01:57:46;14.10;99.90
65044;DHT22;51617;48.158;16.464;2023-05-15T02:00:13;14.20;99.90
65044;DHT22;51617;48.158;16.464;2023-05-15T02:02:40;14.10;99.90
65044;DHT22;51617;48.158;16.464;2023-05-15T02:05:06;14.10;99.90
65044;DHT22;51617;48.158;16.464;2023-05-15T02:07:32;14.10;99.90
65044;DHT22;51617;48.158;16.464;2023-05-15T02:09:58;14.00;99.90
65044;DHT22;51617;48.158;16.464;2023-05-15T02:12:26;14.10;99.90
65044;DHT22;51617;48.158;16.464;2023-05-15T02:14:52;14.10;99.90
65044;DHT22;51617;48.158;16.464;2023-05-15T02:17:20;14.10;99.90
65044;DHT22;51617;48.158;16.464;2023-05-15T02:19:46;14.00;99.90
65044;DHT22;51617;48.158;16.464;2023-05-15T02:22:12;13.90;99.90
65044;DHT22;51617;48.158;16.464;2023-05-15T02:24:37;13.90;99.90
65044;DHT22;51617;48.158;16.464;2023-05-15T02:27:27;14.00;99.90
65044;DHT22;51617;48.158;16.464;2023-05-15T02:30:12;14.00;99.90
65044;DHT22;51617;48.158;16.464;2023-05-15T02:33:11;14.00;99.90
65044;DHT22;51617;48.158;16.464;2023-05-15T02:35:50;14.10;99.90
65044;DHT22;51617;48.158;16.464;2023-05-15T02:38:22;14.10;99.90
65044;DHT22;51617;48.158;16.464;2023-05-15T02:40:49;14.20;99.90
65044;DHT22;51617;48.158;16.464;2023-05-15T02:43:17;14.20;99.90
65044;DHT22;51617;48.158;16.464;2023-05-15T02:45:44;14.30;99.90
65044;DHT22;51617;48.158;16.464;2023-05-15T02:48:12;14.30;99.90
65044;DHT22;51617;48.158;16.464;2023-05-15T02:50:38;14.30;99.90
65044;DHT22;51617;48.158;16.464;2023-05-15T02:53:05;14.20;99.90
65044;DHT22;51617;48.158;16.464;2023-05-15T02:55:32;14.20;99.90
65044;DHT22;51617;48.158;16.464;2023-05-15T02:57:58;14.20;99.90
65044;DHT22;51617;48.158;16.464;2023-05-15T03:00:24;14.20;99.90
65044;DHT22;51617;48.158;16.464;2023-05-15T03:02:50;14.10;99.90
65044;DHT22;51617;48.158;16.464;2023-05-15T03:05:16;14.10;99.90
65044;DHT22;51617;48.158;16.464;2023-05-15T03:07:41;14.20;99.90
65044;DHT22;51617;48.158;16.464;2023-05-15T03:10:07;14.20;99.90
65044;DHT22;51617;48.158;16.464;2023-05-15T03:12:33;14.20;99.90
65044;DHT22;51617;48.158;16.464;2023-05-15T03:14:59;14.20;99.90
65044;DHT22;51617;48.158;16.464;2023-05-15T03:17:26;14.10;99.90
65044;DHT22;51617;48.158;16.464;2023-05-15T03:19:52;14.10;99.90
65044;DHT22;51617;48.158;16.464;2023-05-15T03:22:17;14.10;99.90
65044;DHT22;51617;48.158;16.464;2023-05-15T03:24:43;14.10;99.90
65044;DHT22;51617;48.158;16.464;2023-05-15T03:27:09;14.10;99.90
65044;DHT22;51617;48.158;16.464;2023-05-15T03:29:34;14.10;99.90
65044;DHT22;51617;48.158;16.464;2023-05-15T03:32:00;14.10;99.90
65044;DHT22;51617;48.158;16.464;2023-05-15T03:34:25;14.00;99.90
65044;DHT22;51617;48.158;16.464;2023-05-15T03:36:51;14.00;99.90
65044;DHT22;51617;48.158;16.464;2023-05-15T03:39:17;13.90;99.90
65044;DHT22;51617;48.158;16.464;2023-05-15T03:41:42;13.90;99.90
65044;DHT22;51617;48.158;16.464;2023-05-15T03:44:08;13.80;99.90
65044;DHT22;51617;48.158;16.464;2023-05-15T03:46:33;13.80;99.90
65044;DHT22;51617;48.158;16.464;2023-05-15T03:48:59;13.80;99.90
65044;DHT22;51617;48.158;16.464;2023-05-15T03:51:25;13.80;99.90
65044;DHT22;51617;48.158;16.464;2023-05-15T03:53:50;13.80;99.90
65044;DHT22;51617;48.158;16.464;2023-05-15T03:56:16;13.70;99.90
65044;DHT22;51617;48.158;16.464;2023-05-15T03:58:42;13.80;99.90
65044;DHT22;51617;48.158;16.464;2023-05-15T04:01:08;13.80;99.90
65044;DHT22;51617;48.158;16.464;2023-05-15T04:03:33;13.80;99.90
65044;DHT22;51617;48.158;16.464;2023-05-15T04:05:59;13.80;99.90
65044;DHT22;51617;48.158;16.464;2023-05-15T04:08:26;13.80;99.90
65044;DHT22;51617;48.158;16.464;2023-05-15T04:10:51;13.90;99.90
65044;DHT22;51617;48.158;16.464;2023-05-15T04:13:17;14.00;99.90
65044;DHT22;51617;48.158;16.464;2023-05-15T04:15:43;14.00;99.90
65044;DHT22;51617;48.158;16.464;2023-05-15T04:18:08;13.90;99.90
65044;DHT22;51617;48.158;16.464;2023-05-15T04:20:34;14.00;99.90
65044;DHT22;51617;48.158;16.464;2023-05-15T04:23:00;14.00;99.90
65044;DHT22;51617;48.158;16.464;2023-05-15T04:25:27;14.10;99.90
65044;DHT22;51617;48.158;16.464;2023-05-15T04:27:52;14.10;99.90
65044;DHT22;51617;48.158;16.464;2023-05-15T04:30:18;14.10;99.90
65044;DHT22;51617;48.158;16.464;2023-05-15T04:32:44;14.10;99.90
65044;DHT22;51617;48.158;16.464;2023-05-15T04:35:10;14.10;99.90
65044;DHT22;51617;48.158;16.464;2023-05-15T04:37:38;14.20;99.90
65044;DHT22;51617;48.158;16.464;2023-05-15T04:40:05;14.20;99.90
65044;DHT22;51617;48.158;16.464;2023-05-15T04:42:32;14.20;99.90
65044;DHT22;51617;48.158;16.464;2023-05-15T04:44:58;14.20;99.90
65044;DHT22;51617;48.158;16.464;2023-05-15T04:47:24;14.10;99.90
65044;DHT22;51617;48.158;16.464;2023-05-15T04:49:50;13.90;99.90
65044;DHT22;51617;48.158;16.464;2023-05-15T04:52:16;13.80;99.90
65044;DHT22;51617;48.158;16.464;2023-05-15T04:54:42;13.70;99.90
65044;DHT22;51617;48.158;16.464;2023-05-15T04:57:08;13.60;99.90
65044;DHT22;51617;48.158;16.464;2023-05-15T04:59:34;13.70;99.90
65044;DHT22;51617;48.158;16.464;2023-05-15T05:02:00;13.60;99.90
65044;DHT22;51617;48.158;16.464;2023-05-15T05:04:26;13.60;99.90
65044;DHT22;51617;48.158;16.464;2023-05-15T05:06:52;13.60;99.90
65044;DHT22;51617;48.158;16.464;2023-05-15T05:09:19;13.50;99.90
65044;DHT22;51617;48.158;16.464;2023-05-15T05:11:45;13.40;99.90
65044;DHT22;51617;48.158;16.464;2023-05-15T05:14:12;13.40;99.90
65044;DHT22;51617;48.158;16.464;2023-05-15T05:16:38;13.40;99.90
65044;DHT22;51617;48.158;16.464;2023-05-15T05:19:04;13.40;99.90
65044;DHT22;51617;48.158;16.464;2023-05-15T05:21:31;13.50;99.90
65044;DHT22;51617;48.158;16.464;2023-05-15T05:23:57;13.60;99.90
65044;DHT22;51617;48.158;16.464;2023-05-15T05:26:23;13.70;99.90
65044;DHT22;51617;48.158;16.464;2023-05-15T05:28:49;13.80;99.90
65044;DHT22;51617;48.158;16.464;2023-05-15T05:31:15;13.80;99.90
65044;DHT22;51617;48.158;16.464;2023-05-15T05:33:40;13.80;99.90
65044;DHT22;51617;48.158;16.464;2023-05-15T05:36:07;13.80;99.90
65044;DHT22;51617;48.158;16.464;2023-05-15T05:38:33;13.80;99.90
65044;DHT22;51617;48.158;16.464;2023-05-15T05:40:59;13.80;99.90
65044;DHT22;51617;48.158;16.464;2023-05-15T05:43:26;13.70;99.90
65044;DHT22;51617;48.158;16.464;2023-05-15T05:45:51;13.80;99.90
65044;DHT22;51617;48.158;16.464;2023-05-15T05:48:17;13.80;99.90
65044;DHT22;51617;48.158;16.464;2023-05-15T05:50:43;13.80;99.90
65044;DHT22;51617;48.158;16.464;2023-05-15T05:53:09;13.80;99.90
65044;DHT22;51617;48.158;16.464;2023-05-15T05:55:35;13.70;99.90
65044;DHT22;51617;48.158;16.464;2023-05-15T05:58:00;13.70;99.90
65044;DHT22;51617;48.158;16.464;2023-05-15T06:00:26;13.70;99.90
65044;DHT22;51617;48.158;16.464;2023-05-15T06:02:57;13.80;99.90
65044;DHT22;51617;48.158;16.464;2023-05-15T06:05:26;13.90;99.90
65044;DHT22;51617;48.158;16.464;2023-05-15T06:07:53;14.00;99.90
65044;DHT22;51617;48.158;16.464;2023-05-15T06:10:19;14.00;99.90
65044;DHT22;51617;48.158;16.464;2023-05-15T06:12:46;14.00;99.90
65044;DHT22;51617;48.158;16.464;2023-05-15T06:15:12;14.10;99.90
65044;DHT22;51617;48.158;16.464;2023-05-15T06:17:38;14.20;99.90
65044;DHT22;51617;48.158;16.464;2023-05-15T06:20:05;14.30;99.90
65044;DHT22;51617;48.158;16.464;2023-05-15T06:22:35;14.40;99.90
65044;DHT22;51617;48.158;16.464;2023-05-15T06:25:04;14.40;99.90
65044;DHT22;51617;48.158;16.464;2023-05-15T06:27:31;14.40;99.90
65044;DHT22;51617;48.158;16.464;2023-05-15T06:29:57;14.50;99.90
65044;DHT22;51617;48.158;16.464;2023-05-15T06:32:22;14.40;99.90
65044;DHT22;51617;48.158;16.464;2023-05-15T06:34:48;14.30;99.90
65044;DHT22;51617;48.158;16.464;2023-05-15T06:37:14;14.30;99.90
65044;DHT22;51617;48.158;16.464;2023-05-15T06:39:39;14.30;99.90
65044;DHT22;51617;48.158;16.464;2023-05-15T06:42:05;14.30;99.90
65044;DHT22;51617;48.158;16.464;2023-05-15T06:44:31;14.50;99.90
65044;DHT22;51617;48.158;16.464;2023-05-15T06:46:57;14.50;99.90
65044;DHT22;51617;48.158;16.464;2023-05-15T06:49:23;14.50;99.90
65044;DHT22;51617;48.158;16.464;2023-05-15T06:51:49;14.50;99.90
65044;DHT22;51617;48.158;16.464;2023-05-15T06:54:15;14.40;99.90
65044;DHT22;51617;48.158;16.464;2023-05-15T06:56:41;14.40;99.90
65044;DHT22;51617;48.158;16.464;2023-05-15T06:59:07;14.40;99.90
65044;DHT22;51617;48.158;16.464;2023-05-15T07:01:32;14.50;99.90
65044;DHT22;51617;48.158;16.464;2023-05-15T07:03:58;14.50;99.90
65044;DHT22;51617;48.158;16.464;2023-05-15T07:06:24;14.50;99.90
65044;DHT22;51617;48.158;16.464;2023-05-15T07:08:50;14.50;99.90
65044;DHT22;51617;48.158;16.464;2023-05-15T07:11:16;14.50;99.90
65044;DHT22;51617;48.158;16.464;2023-05-15T07:13:41;14.40;99.90
65044;DHT22;51617;48.158;16.464;2023-05-15T07:16:07;14.30;99.90
65044;DHT22;51617;48.158;16.464;2023-05-15T07:18:33;14.30;99.90
65044;DHT22;51617;48.158;16.464;2023-05-15T07:20:58;14.40;99.90
65044;DHT22;51617;48.158;16.464;2023-05-15T07:23:24;14.40;99.90
65044;DHT22;51617;48.158;16.464;2023-05-15T07:25:52;14.50;99.90
65044;DHT22;51617;48.158;16.464;2023-05-15T07:28:18;14.60;99.90
65044;DHT22;51617;48.158;16.464;2023-05-15T07:30:43;14.70;99.90
65044;DHT22;51617;48.158;16.464;2023-05-15T07:33:09;14.70;99.50
65044;DHT22;51617;48.158;16.464;2023-05-15T07:35:35;14.70;99.50
65044;DHT22;51617;48.158;16.464;2023-05-15T07:38:01;14.90;99.10
65044;DHT22;51617;48.158;16.464;2023-05-15T07:40:26;14.90;99.20
65044;DHT22;51617;48.158;16.464;2023-05-15T07:42:52;15.00;99.20
65044;DHT22;51617;48.158;16.464;2023-05-15T07:45:17;15.10;98.70
65044;DHT22;51617;48.158;16.464;2023-05-15T07:47:47;15.20;98.50
65044;DHT22;51617;48.158;16.464;2023-05-15T07:50:14;15.40;98.30
65044;DHT22;51617;48.158;16.464;2023-05-15T07:52:40;15.50;98.30
65044;DHT22;51617;48.158;16.464;2023-05-15T07:55:07;15.70;97.50
65044;DHT22;51617;48.158;16.464;2023-05-15T07:57:33;15.80;97.50
65044;DHT22;51617;48.158;16.464;2023-05-15T07:59:59;16.00;96.60
65044;DHT22;51617;48.158;16.464;2023-05-15T08:02:26;16.10;96.80
65044;DHT22;51617;48.158;16.464;2023-05-15T08:04:52;16.20;96.60
65044;DHT22;51617;48.158;16.464;2023-05-15T08:07:18;16.40;96.20
65044;DHT22;51617;48.158;16.464;2023-05-15T08:09:43;16.40;95.50
65044;DHT22;51617;48.158;16.464;2023-05-15T08:12:17;16.50;95.70
65044;DHT22;51617;48.158;16.464;2023-05-15T08:14:51;16.70;95.70
65044;DHT22;51617;48.158;16.464;2023-05-15T08:17:17;16.80;95.60
65044;DHT22;51617;48.158;16.464;2023-05-15T08:19:44;16.80;95.50
65044;DHT22;51617;48.158;16.464;2023-05-15T08:22:09;16.70;95.30
65044;DHT22;51617;48.158;16.464;2023-05-15T08:24:36;16.60;95.20
65044;DHT22;51617;48.158;16.464;2023-05-15T08:27:06;16.60;94.90
65044;DHT22;51617;48.158;16.464;2023-05-15T08:29:36;16.60;95.30
65044;DHT22;51617;48.158;16.464;2023-05-15T08:32:02;16.60;94.90
65044;DHT22;51617;48.158;16.464;2023-05-15T08:34:28;16.90;95.50
65044;DHT22;51617;48.158;16.464;2023-05-15T08:36:54;16.80;94.80
65044;DHT22;51617;48.158;16.464;2023-05-15T08:39:21;16.60;94.90
65044;DHT22;51617;48.158;16.464;2023-05-15T08:42:20;16.50;95.10
65044;DHT22;51617;48.158;16.464;2023-05-15T08:44:46;16.30;94.40
65044;DHT22;51617;48.158;16.464;2023-05-15T08:47:13;16.30;94.80
65044;DHT22;51617;48.158;16.464;2023-05-15T08:50:18;16.40;95.50
65044;DHT22;51617;48.158;16.464;2023-05-15T08:52:46;16.60;94.50
65044;DHT22;51617;48.158;16.464;2023-05-15T08:55:15;16.60;94.00
65044;DHT22;51617;48.158;16.464;2023-05-15T08:57:42;16.60;93.60
65044;DHT22;51617;48.158;16.464;2023-05-15T09:00:08;16.60;94.10
65044;DHT22;51617;48.158;16.464;2023-05-15T09:02:37;16.70;93.90
65044;DHT22;51617;48.158;16.464;2023-05-15T09:05:03;16.80;94.10
65044;DHT22;51617;48.158;16.464;2023-05-15T09:07:30;16.90;93.10
65044;DHT22;51617;48.158;16.464;2023-05-15T09:09:56;17.00;93.50
65044;DHT22;51617;48.158;16.464;2023-05-15T09:12:24;17.20;92.90
65044;DHT22;51617;48.158;16.464;2023-05-15T09:14:50;17.20;92.90
65044;DHT22;51617;48.158;16.464;2023-05-15T09:17:15;17.20;93.60
65044;DHT22;51617;48.158;16.464;2023-05-15T09:19:41;17.30;93.70
65044;DHT22;51617;48.158;16.464;2023-05-15T09:22:17;17.30;92.80
65044;DHT22;51617;48.158;16.464;2023-05-15T09:24:45;17.20;92.70
65044;DHT22;51617;48.158;16.464;2023-05-15T09:27:16;17.10;93.30
65044;DHT22;51617;48.158;16.464;2023-05-15T09:29:41;17.10;93.30
65044;DHT22;51617;48.158;16.464;2023-05-15T09:32:12;17.10;93.30
65044;DHT22;51617;48.158;16.464;2023-05-15T09:34:43;17.10;92.50
65044;DHT22;51617;48.158;16.464;2023-05-15T09:37:12;17.20;92.90
65044;DHT22;51617;48.158;16.464;2023-05-15T09:39:51;17.20;92.40
65044;DHT22;51617;48.158;16.464;2023-05-15T09:42:17;17.20;92.30
65044;DHT22;51617;48.158;16.464;2023-05-15T09:44:43;17.30;93.00
65044;DHT22;51617;48.158;16.464;2023-05-15T09:47:11;17.40;92.70
65044;DHT22;51617;48.158;16.464;2023-05-15T09:49:37;17.50;92.10
65044;DHT22;51617;48.158;16.464;2023-05-15T09:52:02;17.50;91.80
65044;DHT22;51617;48.158;16.464;2023-05-15T09:54:31;17.50;92.00
65044;DHT22;51617;48.158;16.464;2023-05-15T09:57:09;17.40;91.90
65044;DHT22;51617;48.158;16.464;2023-05-15T09:59:45;17.50;92.70
65044;DHT22;51617;48.158;16.464;2023-05-15T10:02:25;17.60;91.30
65044;DHT22;51617;48.158;16.464;2023-05-15T10:04:56;17.30;91.30
65044;DHT22;51617;48.158;16.464;2023-05-15T10:07:33;17.20;91.00
65044;DHT22;51617;48.158;16.464;2023-05-15T10:10:00;17.30;91.00
65044;DHT22;51617;48.158;16.464;2023-05-15T10:12:27;17.20;90.80
65044;DHT22;51617;48.158;16.464;2023-05-15T10:14:55;17.30;91.10
65044;DHT22;51617;48.158;16.464;2023-05-15T10:17:21;17.30;91.40
65044;DHT22;51617;48.158;16.464;2023-05-15T10:19:50;17.40;91.00
65044;DHT22;51617;48.158;16.464;2023-05-15T10:22:21;17.40;91.40
65044;DHT22;51617;48.158;16.464;2023-05-15T10:24:56;17.50;90.70
65044;DHT22;51617;48.158;16.464;2023-05-15T10:27:25;17.60;90.70
65044;DHT22;51617;48.158;16.464;2023-05-15T10:29:52;17.70;90.80
65044;DHT22;51617;48.158;16.464;2023-05-15T10:32:19;17.80;90.10
65044;DHT22;51617;48.158;16.464;2023-05-15T10:34:45;17.70;90.70
65044;DHT22;51617;48.158;16.464;2023-05-15T10:37:12;17.60;90.50
65044;DHT22;51617;48.158;16.464;2023-05-15T10:39:39;17.50;90.80
65044;DHT22;51617;48.158;16.464;2023-05-15T10:42:07;17.60;89.70
65044;DHT22;51617;48.158;16.464;2023-05-15T10:44:32;17.60;90.30
65044;DHT22;51617;48.158;16.464;2023-05-15T10:46:58;17.50;90.40
65044;DHT22;51617;48.158;16.464;2023-05-15T10:49:24;17.40;90.00
65044;DHT22;51617;48.158;16.464;2023-05-15T10:51:51;17.50;90.70
65044;DHT22;51617;48.158;16.464;2023-05-15T10:54:17;17.70;90.10
65044;DHT22;51617;48.158;16.464;2023-05-15T10:56:43;17.90;89.30
65044;DHT22;51617;48.158;16.464;2023-05-15T10:59:10;17.90;90.20
65044;DHT22;51617;48.158;16.464;2023-05-15T11:01:39;17.80;90.10
65044;DHT22;51617;48.158;16.464;2023-05-15T11:04:06;17.80;90.20
65044;DHT22;51617;48.158;16.464;2023-05-15T11:06:32;17.80;90.10
65044;DHT22;51617;48.158;16.464;2023-05-15T11:14:18;17.90;90.50
65044;DHT22;51617;48.158;16.464;2023-05-15T11:19:34;18.00;89.60
65044;DHT22;51617;48.158;16.464;2023-05-15T11:22:19;18.10;89.00
65044;DHT22;51617;48.158;16.464;2023-05-15T11:30:09;18.80;89.00
65044;DHT22;51617;48.158;16.464;2023-05-15T11:32:54;18.70;88.50
65044;DHT22;51617;48.158;16.464;2023-05-15T11:35:37;18.60;88.50
65044;DHT22;51617;48.158;16.464;2023-05-15T11:40:59;18.60;88.30
65044;DHT22;51617;48.158;16.464;2023-05-15T11:43:36;18.80;86.50
65044;DHT22;51617;48.158;16.464;2023-05-15T11:48:32;18.70;85.40
65044;DHT22;51617;48.158;16.464;2023-05-15T11:51:02;18.60;86.00
65044;DHT22;51617;48.158;16.464;2023-05-15T11:53:29;18.60;86.80
65044;DHT22;51617;48.158;16.464;2023-05-15T11:55:55;18.70;85.40
65044;DHT22;51617;48.158;16.464;2023-05-15T11:58:22;18.80;85.90
65044;DHT22;51617;48.158;16.464;2023-05-15T12:00:49;18.90;86.80
65044;DHT22;51617;48.158;16.464;2023-05-15T12:05:51;18.90;84.00
65044;DHT22;51617;48.158;16.464;2023-05-15T12:08:18;19.00;85.90
65044;DHT22;51617;48.158;16.464;2023-05-15T12:10:46;19.00;83.20
65044;DHT22;51617;48.158;16.464;2023-05-15T12:13:13;18.80;82.90
65044;DHT22;51617;48.158;16.464;2023-05-15T12:15:45;18.70;83.70
65044;DHT22;51617;48.158;16.464;2023-05-15T12:18:11;19.00;83.40
65044;DHT22;51617;48.158;16.464;2023-05-15T12:20:38;19.40;86.90
65044;DHT22;51617;48.158;16.464;2023-05-15T12:23:06;19.60;82.40
65044;DHT22;51617;48.158;16.464;2023-05-15T12:25:34;19.50;80.90
65044;DHT22;51617;48.158;16.464;2023-05-15T12:28:03;19.20;81.80
65044;DHT22;51617;48.158;16.464;2023-05-15T12:30:33;19.10;82.00
65044;DHT22;51617;48.158;16.464;2023-05-15T12:33:03;19.30;83.00
65044;DHT22;51617;48.158;16.464;2023-05-15T12:35:32;19.40;84.40
65044;DHT22;51617;48.158;16.464;2023-05-15T12:38:02;19.70;84.40
65044;DHT22;51617;48.158;16.464;2023-05-15T12:40:32;19.80;81.10
65044;DHT22;51617;48.158;16.464;2023-05-15T12:42:58;19.70;81.20
65044;DHT22;51617;48.158;16.464;2023-05-15T12:45:25;19.80;81.50
65044;DHT22;51617;48.158;16.464;2023-05-15T12:47:50;20.00;81.70
65044;DHT22;51617;48.158;16.464;2023-05-15T12:50:21;20.10;82.20
65044;DHT22;51617;48.158;16.464;2023-05-15T12:55:25;19.80;79.70
65044;DHT22;51617;48.158;16.464;2023-05-15T12:58:03;19.80;79.70
65044;DHT22;51617;48.158;16.464;2023-05-15T13:00:36;19.80;80.90
65044;DHT22;51617;48.158;16.464;2023-05-15T13:03:03;19.70;80.30
65044;DHT22;51617;48.158;16.464;2023-05-15T13:05:33;19.80;80.50
65044;DHT22;51617;48.158;16.464;2023-05-15T13:08:00;19.80;80.50
65044;DHT22;51617;48.158;16.464;2023-05-15T13:10:27;20.00;81.50
65044;DHT22;51617;48.158;16.464;2023-05-15T13:12:54;19.90;80.80
65044;DHT22;51617;48.158;16.464;2023-05-15T13:15:35;19.80;79.20
65044;DHT22;51617;48.158;16.464;2023-05-15T13:20:41;19.40;81.60
65044;DHT22;51617;48.158;16.464;2023-05-15T13:23:09;19.60;81.00
65044;DHT22;51617;48.158;16.464;2023-05-15T13:25:35;19.70;81.10
65044;DHT22;51617;48.158;16.464;2023-05-15T13:28:03;20.10;80.90
65044;DHT22;51617;48.158;16.464;2023-05-15T13:30:30;20.20;78.90
65044;DHT22;51617;48.158;16.464;2023-05-15T13:32:56;20.20;80.00
65044;DHT22;51617;48.158;16.464;2023-05-15T13:35:22;20.20;80.40
65044;DHT22;51617;48.158;16.464;2023-05-15T13:37:48;20.00;79.20
65044;DHT22;51617;48.158;16.464;2023-05-15T13:40:14;19.80;80.00
65044;DHT22;51617;48.158;16.464;2023-05-15T13:42:41;19.90;80.60
65044;DHT22;51617;48.158;16.464;2023-05-15T13:45:10;20.00;80.70
65044;DHT22;51617;48.158;16.464;2023-05-15T13:47:36;20.10;81.30
65044;DHT22;51617;48.158;16.464;2023-05-15T13:50:04;20.10;81.00
65044;DHT22;51617;48.158;16.464;2023-05-15T13:52:31;20.20;80.30
65044;DHT22;51617;48.158;16.464;2023-05-15T13:54:56;20.30;80.10
65044;DHT22;51617;48.158;16.464;2023-05-15T13:57:22;20.40;79.40
65044;DHT22;51617;48.158;16.464;2023-05-15T13:59:48;20.50;79.40
65044;DHT22;51617;48.158;16.464;2023-05-15T14:02:14;20.50;79.10
65044;DHT22;51617;48.158;16.464;2023-05-15T14:04:39;20.50;79.30
65044;DHT22;51617;48.158;16.464;2023-05-15T14:07:05;20.30;79.40
65044;DHT22;51617;48.158;16.464;2023-05-15T14:09:30;20.30;78.30
65044;DHT22;51617;48.158;16.464;2023-05-15T14:11:56;20.40;79.20
65044;DHT22;51617;48.158;16.464;2023-05-15T14:14:22;20.60;78.10
65044;DHT22;51617;48.158;16.464;2023-05-15T14:16:47;20.70;77.80
65044;DHT22;51617;48.158;16.464;2023-05-15T14:19:14;20.80;77.80
65044;DHT22;51617;48.158;16.464;2023-05-15T14:21:39;21.00;76.80
65044;DHT22;51617;48.158;16.464;2023-05-15T14:24:05;21.10;75.20
65044;DHT22;51617;48.158;16.464;2023-05-15T14:26:31;21.00;76.60
65044;DHT22;51617;48.158;16.464;2023-05-15T14:28:57;20.70;77.70
65044;DHT22;51617;48.158;16.464;2023-05-15T14:31:23;20.80;78.90
65044;DHT22;51617;48.158;16.464;2023-05-15T14:33:49;21.10;78.40
65044;DHT22;51617;48.158;16.464;2023-05-15T14:36:15;21.20;78.70
65044;DHT22;51617;48.158;16.464;2023-05-15T14:38:41;21.20;78.90
65044;DHT22;51617;48.158;16.464;2023-05-15T14:41:10;21.10;79.00
65044;DHT22;51617;48.158;16.464;2023-05-15T14:43:36;21.00;77.30
65044;DHT22;51617;48.158;16.464;2023-05-15T14:46:01;21.00;76.50
65044;DHT22;51617;48.158;16.464;2023-05-15T14:48:27;21.10;77.10
65044;DHT22;51617;48.158;16.464;2023-05-15T14:50:54;21.90;76.40
65044;DHT22;51617;48.158;16.464;2023-05-15T14:53:20;23.00;72.70
65044;DHT22;51617;48.158;16.464;2023-05-15T14:55:46;23.80;70.70
65044;DHT22;51617;48.158;16.464;2023-05-15T14:58:11;24.10;69.20
65044;DHT22;51617;48.158;16.464;2023-05-15T15:00:37;24.40;68.00
65044;DHT22;51617;48.158;16.464;2023-05-15T15:03:03;24.70;67.10
65044;DHT22;51617;48.158;16.464;2023-05-15T15:05:29;24.60;66.70
65044;DHT22;51617;48.158;16.464;2023-05-15T15:08:02;23.90;67.30
65044;DHT22;51617;48.158;16.464;2023-05-15T15:10:29;23.40;69.40
65044;DHT22;51617;48.158;16.464;2023-05-15T15:12:56;22.50;69.60
65044;DHT22;51617;48.158;16.464;2023-05-15T15:15:22;21.60;72.90
65044;DHT22;51617;48.158;16.464;2023-05-15T15:17:48;21.70;73.60
65044;DHT22;51617;48.158;16.464;2023-05-15T15:20:16;22.90;72.50
65044;DHT22;51617;48.158;16.464;2023-05-15T15:22:42;24.00;69.90
65044;DHT22;51617;48.158;16.464;2023-05-15T15:25:08;24.50;66.20
65044;DHT22;51617;48.158;16.464;2023-05-15T15:27:34;24.90;65.70
65044;DHT22;51617;48.158;16.464;2023-05-15T15:30:04;25.40;63.30
65044;DHT22;51617;48.158;16.464;2023-05-15T15:32:30;25.20;63.50
65044;DHT22;51617;48.158;16.464;2023-05-15T15:34:56;25.10;62.90
65044;DHT22;51617;48.158;16.464;2023-05-15T15:37:22;24.10;65.00
65044;DHT22;51617;48.158;16.464;2023-05-15T15:39:47;23.40;67.70
65044;DHT22;51617;48.158;16.464;2023-05-15T15:42:13;23.70;68.30
65044;DHT22;51617;48.158;16.464;2023-05-15T15:44:39;24.80;65.80
65044;DHT22;51617;48.158;16.464;2023-05-15T15:47:05;25.40;64.90
65044;DHT22;51617;48.158;16.464;2023-05-15T15:49:31;25.90;63.50
65044;DHT22;51617;48.158;16.464;2023-05-15T15:51:56;26.50;62.30
65044;DHT22;51617;48.158;16.464;2023-05-15T15:54:22;25.70;61.40